Terminal Aerodrome Forecast
Issued by NWS Portland, ME

Home | Current Version | Previous Version | Text Only | Print | Product List | Glossary On
Versions: 1 2 3 4 5 6 7 8 9 10 11 12 13 14 15 16 17 18 19
076
FTUS41 KGYX 041343 AAA
TAFPWM
TAF AMD
KPWM 041343Z 0414/0512 09008KT P6SM SCT017 BKN023 BKN050
     FM041900 08008KT P6SM OVC015
     FM050000 07006KT 4SM -DZ OVC007
     FM050800 02013KT 4SM BR OVC003=

USA.gov is the U.S. government's official web portal to all federal, state and local government web resources and services.